createdAt,value
2022-11-06T00:01:44.364Z,6.94
2022-11-06T00:06:04.951Z,6.95
2022-11-06T00:10:07.257Z,6.76
2022-11-06T00:14:10.282Z,6.75
2022-11-06T00:18:12.561Z,6.69
2022-11-06T00:22:16.493Z,6.69
2022-11-06T00:26:21.310Z,6.63
2022-11-06T00:30:25.338Z,6.64
2022-11-06T00:34:27.935Z,6.50
2022-11-06T00:38:30.272Z,6.49
2022-11-06T00:42:32.560Z,6.43
2022-11-06T00:46:34.979Z,6.43
2022-11-06T00:50:37.225Z,6.41
2022-11-06T00:54:39.282Z,6.45
2022-11-06T00:58:41.864Z,6.42
2022-11-06T01:02:45.892Z,6.35
2022-11-06T01:06:53.586Z,6.31
2022-11-06T01:10:55.949Z,6.54
2022-11-06T01:14:58.410Z,6.31
2022-11-06T01:19:01.849Z,6.39
2022-11-06T01:23:04.160Z,6.55
2022-11-06T01:31:31.844Z,6.22
2022-11-06T01:35:34.039Z,6.11
2022-11-06T01:39:36.328Z,6.18
2022-11-06T01:43:54.532Z,6.24
2022-11-06T01:47:57.096Z,6.33
2022-11-06T01:52:12.128Z,6.47
2022-11-06T01:56:15.315Z,6.40
2022-11-06T02:00:18.029Z,6.29
2022-11-06T02:04:22.424Z,6.20
2022-11-06T02:08:25.598Z,6.01
2022-11-06T02:12:36.852Z,6.01
2022-11-06T02:17:04.797Z,6.09
2022-11-06T02:21:35.346Z,6.12
2022-11-06T02:25:46.371Z,6.20
2022-11-06T02:30:06.350Z,6.09
2022-11-06T02:34:19.510Z,6.04
2022-11-06T02:38:28.300Z,5.99
2022-11-06T02:42:34.369Z,5.74
2022-11-06T02:46:41.970Z,5.75
2022-11-06T02:50:47.416Z,5.78
2022-11-06T02:54:59.980Z,5.76
2022-11-06T02:59:09.764Z,5.60
2022-11-06T03:03:20.225Z,5.61
2022-11-06T03:07:44.636Z,5.55
2022-11-06T03:11:54.040Z,5.48
2022-11-06T03:16:15.346Z,5.39
2022-11-06T03:20:30.485Z,5.30
2022-11-06T03:24:39.363Z,5.33
2022-11-06T03:29:06.497Z,5.21
2022-11-06T03:33:19.494Z,5.24
2022-11-06T03:37:30.728Z,5.16
2022-11-06T03:42:02.277Z,5.08
2022-11-06T03:46:16.713Z,5.09
2022-11-06T03:50:32.161Z,5.06
2022-11-06T03:54:47.614Z,5.01
2022-11-06T03:58:51.041Z,4.98
2022-11-06T04:03:07.534Z,5.20
2022-11-06T04:07:16.580Z,5.70
2022-11-06T04:11:41.925Z,6.39
2022-11-06T04:15:52.087Z,7.41
2022-11-06T04:19:59.155Z,7.99
2022-11-06T04:24:41.690Z,8.33
2022-11-06T04:29:18.860Z,8.59
2022-11-06T04:33:29.496Z,8.78
2022-11-06T04:37:50.098Z,8.51
2022-11-06T04:42:06.818Z,7.96
2022-11-06T04:46:12.360Z,7.56
2022-11-06T04:50:17.594Z,7.25
2022-11-06T04:54:20.302Z,7.04
2022-11-06T04:58:22.449Z,6.85
2022-11-06T05:02:24.985Z,6.72
2022-11-06T05:06:30.000Z,6.56
2022-11-06T05:10:32.489Z,6.45
2022-11-06T05:14:34.620Z,6.24
2022-11-06T05:18:36.629Z,6.12
2022-11-06T05:23:00.932Z,6.00
2022-11-06T05:27:03.059Z,5.90
2022-11-06T05:31:05.673Z,5.84
2022-11-06T05:35:07.968Z,5.76
2022-11-06T05:39:10.346Z,5.62
2022-11-06T05:43:13.245Z,5.60
2022-11-06T05:47:15.247Z,5.64
2022-11-06T05:51:17.910Z,5.57
2022-11-06T05:55:20.346Z,5.57
2022-11-06T05:59:22.359Z,5.66
2022-11-06T06:03:25.109Z,6.00
2022-11-06T06:07:27.200Z,6.02
2022-11-06T06:11:29.264Z,6.13
2022-11-06T06:16:03.542Z,6.23
2022-11-06T06:20:06.272Z,6.35
2022-11-06T06:24:08.317Z,6.33
2022-11-06T06:28:10.577Z,6.51
2022-11-06T06:32:13.087Z,6.88
2022-11-06T06:36:15.302Z,7.25
2022-11-06T06:40:17.348Z,6.92
2022-11-06T06:44:19.495Z,6.71
2022-11-06T06:48:21.425Z,6.68
2022-11-06T06:52:23.416Z,6.62
2022-11-06T06:56:25.380Z,6.77
2022-11-06T07:00:32.636Z,6.95
2022-11-06T07:04:34.987Z,7.42
2022-11-06T07:08:37.407Z,8.32
2022-11-06T07:12:39.370Z,9.76
2022-11-06T07:16:41.806Z,10.15
2022-11-06T07:20:43.759Z,10.60
2022-11-06T07:24:45.759Z,10.88
2022-11-06T07:28:47.679Z,11.23
2022-11-06T07:32:49.651Z,11.31
2022-11-06T07:36:51.560Z,11.48
2022-11-06T07:40:53.536Z,11.64
2022-11-06T07:44:56.165Z,11.82
2022-11-06T07:48:58.070Z,11.99
2022-11-06T07:53:03.244Z,12.06
2022-11-06T07:57:05.204Z,12.14
2022-11-06T08:01:17.965Z,12.32
2022-11-06T08:05:21.080Z,12.49
2022-11-06T08:09:25.161Z,12.58
2022-11-06T08:13:27.134Z,12.67
2022-11-06T08:17:30.379Z,12.75
2022-11-06T08:21:32.372Z,12.91
2022-11-06T08:25:35.135Z,13.02
2022-11-06T08:29:41.161Z,13.24
2022-11-06T08:33:43.817Z,13.41
2022-11-06T08:37:46.009Z,13.56
2022-11-06T08:41:48.162Z,13.66
2022-11-06T08:45:50.301Z,13.73
2022-11-06T08:49:52.258Z,13.83
2022-11-06T08:53:54.233Z,13.95
2022-11-06T08:57:56.648Z,13.93
2022-11-06T09:01:59.229Z,14.06
2022-11-06T09:06:01.606Z,14.21
2022-11-06T09:10:03.997Z,14.35
2022-11-06T09:14:05.959Z,14.47
2022-11-06T09:18:08.759Z,14.53
2022-11-06T09:22:10.775Z,14.62
2022-11-06T09:26:12.738Z,14.60
2022-11-06T09:30:16.687Z,14.71
2022-11-06T09:34:18.876Z,14.74
2022-11-06T09:38:20.824Z,14.72
2022-11-06T09:42:31.883Z,14.81
2022-11-06T09:46:46.057Z,14.88
2022-11-06T09:50:55.876Z,14.99
2022-11-06T09:55:24.693Z,15.00
2022-11-06T09:59:27.502Z,15.13
2022-11-06T10:03:40.983Z,15.11
2022-11-06T10:07:45.821Z,15.14
2022-11-06T10:11:54.745Z,15.16
2022-11-06T10:16:32.179Z,15.20
2022-11-06T10:20:50.618Z,15.28
2022-11-06T10:24:56.172Z,15.31
2022-11-06T10:29:01.752Z,15.49
2022-11-06T10:38:10.497Z,15.55
2022-11-06T10:42:15.602Z,15.70
2022-11-06T10:46:49.015Z,15.57
2022-11-06T10:51:16.975Z,15.52
2022-11-06T10:55:32.670Z,15.57
2022-11-06T10:59:35.039Z,15.68
2022-11-06T11:03:42.194Z,15.72
2022-11-06T11:07:47.301Z,15.62
2022-11-06T11:11:50.148Z,15.69
2022-11-06T11:16:02.092Z,15.71
2022-11-06T11:20:25.271Z,15.71
2022-11-06T11:24:27.749Z,15.74
2022-11-06T11:28:31.504Z,15.72
2022-11-06T11:32:33.953Z,15.69
2022-11-06T11:36:48.108Z,15.77
2022-11-06T11:40:51.548Z,15.90
2022-11-06T11:45:19.777Z,15.92
2022-11-06T11:49:32.237Z,15.84
2022-11-06T11:53:34.318Z,15.84
2022-11-06T11:57:36.234Z,15.88
2022-11-06T12:01:41.043Z,15.85
2022-11-06T12:05:43.123Z,15.91
2022-11-06T12:09:45.337Z,15.94
2022-11-06T12:14:26.247Z,15.92
2022-11-06T12:18:33.018Z,15.89
2022-11-06T12:22:42.056Z,15.99
2022-11-06T12:27:13.665Z,15.98
2022-11-06T12:31:24.919Z,16.03
2022-11-06T12:35:40.386Z,15.95
2022-11-06T12:39:46.665Z,16.07
2022-11-06T12:43:50.689Z,16.10
2022-11-06T12:48:04.847Z,16.01
2022-11-06T12:52:18.854Z,15.90
2022-11-06T12:56:39.477Z,15.85
2022-11-06T13:01:21.836Z,15.86
2022-11-06T13:05:35.146Z,15.93
2022-11-06T13:10:02.690Z,15.85
2022-11-06T13:14:14.099Z,16.06
2022-11-06T13:18:36.189Z,16.04
2022-11-06T13:22:40.633Z,16.06
2022-11-06T13:26:47.933Z,15.88
2022-11-06T13:30:52.245Z,15.85
2022-11-06T13:34:55.416Z,15.85
2022-11-06T13:39:07.694Z,15.89
2022-11-06T13:43:23.573Z,15.85
2022-11-06T13:47:49.513Z,15.80
2022-11-06T13:51:58.596Z,15.81
2022-11-06T13:56:20.629Z,15.79
2022-11-06T14:00:24.789Z,15.80
2022-11-06T14:05:18.876Z,15.80
2022-11-06T14:09:24.815Z,15.76
2022-11-06T14:13:33.831Z,15.72
2022-11-06T14:17:36.919Z,15.71
2022-11-06T14:21:47.866Z,15.67
2022-11-06T14:26:08.713Z,15.61
2022-11-06T14:30:50.359Z,15.56
2022-11-06T14:34:54.465Z,15.52
2022-11-06T14:38:56.846Z,15.48
2022-11-06T14:42:59.091Z,15.52
2022-11-06T14:47:05.778Z,15.48
2022-11-06T14:51:11.351Z,15.38
2022-11-06T14:55:45.781Z,15.27
2022-11-06T14:59:49.160Z,15.21
2022-11-06T15:03:55.513Z,15.16
2022-11-06T15:08:06.686Z,15.06
2022-11-06T15:12:08.939Z,14.88
2022-11-06T15:16:12.941Z,14.70
2022-11-06T15:20:22.004Z,14.52
2022-11-06T15:24:31.563Z,14.25
2022-11-06T15:28:42.313Z,14.10
2022-11-06T15:32:47.564Z,13.91
2022-11-06T15:37:12.360Z,13.72
2022-11-06T15:41:19.932Z,13.51
2022-11-06T15:45:48.762Z,13.34
2022-11-06T15:50:16.871Z,13.05
2022-11-06T15:54:31.916Z,12.86
2022-11-06T15:58:38.125Z,12.80
2022-11-06T16:02:59.579Z,12.74
2022-11-06T16:07:05.733Z,12.55
2022-11-06T16:11:19.913Z,12.40
2022-11-06T16:15:43.700Z,12.10
2022-11-06T16:19:51.090Z,11.82
2022-11-06T16:23:59.400Z,11.66
2022-11-06T16:28:01.509Z,11.67
2022-11-06T16:32:07.148Z,11.47
2022-11-06T16:36:13.654Z,11.40
2022-11-06T16:40:54.134Z,11.15
2022-11-06T16:45:08.333Z,10.82
2022-11-06T16:49:33.217Z,10.63
2022-11-06T16:53:54.397Z,10.49
2022-11-06T16:57:59.407Z,10.23
2022-11-06T17:02:01.888Z,10.11
2022-11-06T17:06:04.226Z,10.03
2022-11-06T17:10:34.724Z,9.77
2022-11-06T17:14:37.171Z,9.72
2022-11-06T17:18:39.681Z,9.59
2022-11-06T17:22:41.601Z,9.61
2022-11-06T17:26:48.835Z,9.51
2022-11-06T17:30:51.372Z,9.34
2022-11-06T17:34:53.450Z,9.14
2022-11-06T17:38:56.625Z,9.16
2022-11-06T17:42:58.947Z,9.12
2022-11-06T17:47:01.041Z,9.06
2022-11-06T17:51:21.725Z,8.84
2022-11-06T17:55:23.892Z,8.60
2022-11-06T17:59:26.162Z,8.52
2022-11-06T18:03:32.306Z,8.63
2022-11-06T18:07:37.335Z,8.14
2022-11-06T18:11:39.491Z,8.49
2022-11-06T18:15:41.463Z,8.55
2022-11-06T18:19:43.526Z,8.44
2022-11-06T18:23:45.545Z,8.35
2022-11-06T18:27:47.813Z,8.30
2022-11-06T18:31:49.971Z,8.33
2022-11-06T18:35:52.249Z,8.22
2022-11-06T18:39:54.401Z,8.23
2022-11-06T18:43:58.217Z,8.13
2022-11-06T18:48:00.181Z,8.03
2022-11-06T18:52:02.266Z,7.88
2022-11-06T18:56:04.683Z,7.68
2022-11-06T19:00:07.505Z,7.54
2022-11-06T19:04:10.798Z,7.57
2022-11-06T19:08:13.372Z,7.52
2022-11-06T19:12:15.819Z,7.42
2022-11-06T19:16:21.233Z,7.37
2022-11-06T19:20:23.335Z,7.01
2022-11-06T19:24:25.273Z,7.10
2022-11-06T19:28:28.426Z,6.92
2022-11-06T19:32:33.309Z,6.85
2022-11-06T19:36:36.933Z,6.68
2022-11-06T19:40:38.924Z,6.75
2022-11-06T19:44:40.915Z,6.71
2022-11-06T19:48:43.232Z,6.71
2022-11-06T19:52:50.945Z,6.75
2022-11-06T19:57:27.215Z,6.73
2022-11-06T20:01:20.871Z,6.37
2022-11-06T20:05:23.009Z,6.36
2022-11-06T20:09:24.997Z,6.38
2022-11-06T20:13:29.514Z,6.24
2022-11-06T20:17:44.558Z,5.94
2022-11-06T20:21:46.550Z,6.01
2022-11-06T20:25:53.018Z,5.95
2022-11-06T20:29:55.033Z,5.83
2022-11-06T20:33:57.709Z,5.58
2022-11-06T20:37:59.732Z,5.70
2022-11-06T20:42:01.751Z,5.67
2022-11-06T20:46:04.343Z,5.58
2022-11-06T20:50:06.752Z,5.74
2022-11-06T20:54:08.804Z,5.72
2022-11-06T20:58:11.726Z,5.73
2022-11-06T21:02:13.986Z,5.77
2022-11-06T21:06:17.393Z,5.68
2022-11-06T21:10:19.565Z,5.65
2022-11-06T21:14:22.611Z,5.43
2022-11-06T21:18:25.752Z,5.39
2022-11-06T21:22:27.704Z,5.42
2022-11-06T21:26:32.383Z,5.50
2022-11-06T21:30:34.377Z,5.57
2022-11-06T21:34:37.009Z,5.49
2022-11-06T21:38:39.237Z,5.46
2022-11-06T21:42:41.246Z,5.43
2022-11-06T21:46:45.650Z,5.39
2022-11-06T21:50:47.920Z,5.20
2022-11-06T21:55:08.613Z,5.16
2022-11-06T21:59:14.532Z,5.12
2022-11-06T22:03:17.430Z,5.05
2022-11-06T22:07:19.425Z,5.01
2022-11-06T22:11:23.234Z,5.00
2022-11-06T22:15:25.641Z,5.01
2022-11-06T22:19:27.714Z,5.07
2022-11-06T22:23:29.671Z,5.04
2022-11-06T22:27:32.566Z,4.89
2022-11-06T22:31:36.635Z,4.89
2022-11-06T22:35:38.566Z,4.90
2022-11-06T22:39:40.848Z,4.83
2022-11-06T22:43:44.582Z,4.69
2022-11-06T22:47:47.027Z,4.79
2022-11-06T22:51:49.466Z,4.79
2022-11-06T22:55:55.410Z,4.86
2022-11-06T22:59:57.370Z,4.78
2022-11-06T23:04:04.515Z,4.65
2022-11-06T23:08:06.539Z,4.53
2022-11-06T23:12:08.553Z,4.40
2022-11-06T23:16:13.497Z,4.34
2022-11-06T23:20:16.037Z,4.32
2022-11-06T23:24:18.339Z,4.34
2022-11-06T23:28:20.713Z,4.33
2022-11-06T23:32:22.665Z,4.41
2022-11-06T23:36:25.231Z,4.05
2022-11-06T23:40:27.484Z,4.00
2022-11-06T23:44:47.964Z,4.00
2022-11-06T23:48:50.069Z,4.05
2022-11-06T23:52:52.044Z,4.07
2022-11-06T23:56:53.988Z,4.12
